Time;durP1;ratioP1;P1;durP2;ratioP2;P2;SDS_P1;SDS_P2;PMS_P1;PMS_P2;Temp;Humidity;BMP_temperature;BMP_pressure;BME280_temperature;BME280_humidity;BME280_pressure;Samples;Min_cycle;Max_cycle;Signal;HPM_P1;HPM_P2
2022/02/08 07:38:59;;;;;;;3.75;1.95;;;;;;;1.32;100.00;100548.72;5071244;28;20066;-84
2022/02/08 07:41:39;;;;;;;4.72;2.08;;;;;;;1.40;100.00;100558.03;5070161;28;20076;-87
2022/02/08 07:44:09;;;;;;;11.27;3.38;;;;;;;1.52;100.00;100564.47;5083977;28;20044;-87
2022/02/08 07:46:37;;;;;;;16.02;2.58;;;;;;;1.63;100.00;100565.66;5077444;28;20078;-88
2022/02/08 07:49:10;;;;;;;2.92;1.58;;;;;;;1.67;100.00;100551.06;5072720;28;20118;-88
2022/02/08 07:51:41;;;;;;;6.95;2.33;;;;;;;1.73;100.00;100570.34;5069293;28;20049;-88
2022/02/08 07:54:11;;;;;;;7.93;1.77;;;;;;;1.67;100.00;100553.75;5067737;28;20068;-87
2022/02/08 07:56:38;;;;;;;6.10;1.95;;;;;;;1.67;100.00;100546.59;5066649;28;20108;-88
2022/02/08 07:59:13;;;;;;;9.70;2.13;;;;;;;1.82;100.00;100551.94;5063290;28;20049;-88
2022/02/08 08:01:40;;;;;;;6.20;1.70;;;;;;;1.93;100.00;100549.50;5059114;28;20053;-88
2022/02/08 08:04:17;;;;;;;;;;;;;;;;;;;;;
2022/02/08 08:06:47;;;;;;;9.02;2.47;;;;;;;1.99;100.00;100541.06;5059769;28;20055;-88
2022/02/08 08:09:20;;;;;;;9.23;2.05;;;;;;;2.06;100.00;100541.50;5061709;28;20049;-88
2022/02/08 08:11:52;;;;;;;9.60;2.80;;;;;;;2.11;100.00;100550.16;5063634;28;20043;-88
2022/02/08 08:14:22;;;;;;;11.23;2.25;;;;;;;2.18;100.00;100545.25;5068738;28;20049;-89
2022/02/08 08:16:55;;;;;;;14.88;2.35;;;;;;;2.29;100.00;100543.59;5065543;28;20084;-82
2022/02/08 08:19:36;;;;;;;12.95;4.43;;;;;;;2.30;100.00;100534.59;5069366;28;20136;-86
2022/02/08 08:22:10;;;;;;;9.30;2.83;;;;;;;2.42;100.00;100537.44;5070744;28;20059;-89
2022/02/08 08:24:37;;;;;;;6.55;2.00;;;;;;;2.50;100.00;100536.94;5068563;28;20053;-85
2022/02/08 08:27:12;;;;;;;32.22;5.72;;;;;;;2.52;100.00;100532.34;5058967;28;20057;-85
2022/02/08 08:29:42;;;;;;;30.17;4.88;;;;;;;2.55;100.00;100524.97;5058169;28;20103;-89
2022/02/08 08:32:10;;;;;;;11.48;2.60;;;;;;;2.59;100.00;100515.75;5066321;28;20124;-89
2022/02/08 08:34:40;;;;;;;10.68;1.98;;;;;;;2.63;100.00;100528.03;5065599;28;20715;-89
2022/02/08 08:37:23;;;;;;;8.77;1.95;;;;;;;2.72;100.00;100512.25;5065730;28;20049;-89
2022/02/08 08:39:52;;;;;;;8.35;2.33;;;;;;;2.98;100.00;100540.06;5065941;28;20052;-89
2022/02/08 08:42:33;;;;;;;11.40;3.27;;;;;;;3.03;100.00;100529.88;5052477;28;20045;-89
2022/02/08 08:50:47;;;;;;;10.05;3.13;;;;;;;3.49;100.00;100513.31;5052728;28;20107;-89
2022/02/08 08:53:16;;;;;;;4.85;2.05;;;;;;;3.66;100.00;100517.50;5053214;28;20057;-90
2022/02/08 08:55:58;;;;;;;96.93;13.95;;;;;;;3.62;100.00;100512.44;5052461;28;20106;-89
2022/02/08 08:58:32;;;;;;;10.30;1.98;;;;;;;3.81;100.00;100537.09;5051933;28;20438;-91
2022/02/08 09:01:00;;;;;;;12.10;2.20;;;;;;;3.81;100.00;100514.69;5051281;28;20155;-90
2022/02/08 09:03:35;;;;;;;8.57;1.77;;;;;;;3.92;100.00;100522.03;5043801;28;20142;-91
2022/02/08 09:06:10;;;;;;;4.72;2.00;;;;;;;4.01;100.00;100516.81;5052604;28;20107;-91
2022/02/08 09:08:45;;;;;;;8.68;1.95;;;;;;;4.08;100.00;100499.28;5053136;28;20112;-90
2022/02/08 09:11:23;;;;;;;8.30;2.05;;;;;;;4.30;100.00;100495.00;5051343;28;20136;-91
2022/02/08 09:13:59;;;;;;;8.93;1.77;;;;;;;4.44;98.85;100504.78;5046694;28;20053;-91
2022/02/08 09:16:34;;;;;;;12.10;2.63;;;;;;;4.49;97.64;100504.47;5033253;28;20107;-87
2022/02/08 09:29:49;;;;;;;11.40;2.97;;;;;;;5.02;99.65;100518.44;5048579;28;20049;-91
2022/02/08 09:32:56;;;;;;;8.23;1.88;;;;;;;4.96;95.69;100500.03;5053312;28;20060;-92
2022/02/08 09:35:29;;;;;;;20.45;3.33;;;;;;;5.09;99.41;100497.28;5052307;28;20819;-92
2022/02/08 09:41:36;;;;;;;8.63;2.53;;;;;;;5.26;93.81;100504.06;5041825;28;20177;-93
2022/02/08 09:44:31;;;;;;;7.90;3.33;;;;;;;5.59;93.73;100519.47;5047054;28;20057;-93
2022/02/08 09:50:40;;;;;;;12.02;2.40;;;;;;;5.47;91.23;100491.63;5032802;28;20057;-92
2022/02/08 10:03:52;;;;;;;11.98;3.22;;;;;;;5.31;94.01;100516.22;4932505;29;20546;-91
2022/02/08 10:07:08;;;;;;;6.45;2.00;;;;;;;5.41;91.24;100510.97;4910249;29;20063;-91
2022/02/08 10:50:09;;;;;;;9.05;2.25;;;;;;;6.48;86.84;100495.31;6099697;22;20057;-90
2022/02/08 10:52:49;;;;;;;8.57;1.88;;;;;;;6.44;88.06;100484.91;6281870;22;20019;-90
2022/02/08 10:55:42;;;;;;;7.07;1.88;;;;;;;6.57;87.13;100504.53;6280996;22;20011;-89
2022/02/08 10:58:28;;;;;;;33.50;11.85;;;;;;;6.60;87.64;100501.56;6281526;22;20020;-89
2022/02/08 11:01:03;;;;;;;12.73;2.67;;;;;;;6.70;87.23;100482.78;6281463;22;20022;-89
2022/02/08 11:03:43;;;;;;;11.57;2.25;;;;;;;6.79;85.12;100482.00;6280584;22;20023;-89
2022/02/08 11:06:20;;;;;;;12.43;1.92;;;;;;;7.03;85.72;100492.59;6281330;22;20019;-89
2022/02/08 11:15:21;;;;;;;5.53;2.70;;;;;;;7.06;85.93;100459.00;6246404;22;20501;-90
2022/02/08 11:18:18;;;;;;;6.93;1.60;;;;;;;7.18;85.47;100476.03;6280822;22;20558;-90
2022/02/08 11:20:53;;;;;;;7.50;1.70;;;;;;;7.24;86.88;100478.22;6280938;22;20343;-90
2022/02/08 11:23:30;;;;;;;10.48;2.50;;;;;;;7.29;86.51;100467.00;6281712;22;20016;-90
2022/02/08 11:26:02;;;;;;;10.15;2.20;;;;;;;7.32;84.40;100458.66;6279734;22;20019;-90
2022/02/08 11:28:46;;;;;;;7.25;1.90;;;;;;;7.42;86.88;100467.66;6274759;22;20019;-90
2022/02/08 11:31:24;;;;;;;6.40;1.67;;;;;;;7.50;86.92;100465.16;6274808;22;20027;-90
2022/02/08 11:48:42;;;;;;;3.60;1.48;;;;;;;7.94;90.54;100462.25;6274158;22;20314;-90
2022/02/08 12:00:21;;;;;;;3.00;1.00;;;;;;;7.97;89.77;100448.44;6272595;22;20026;-90
2022/02/08 12:03:27;;;;;;;4.35;1.40;;;;;;;7.96;89.10;100449.41;6274343;22;20024;-90
2022/02/08 12:06:26;;;;;;;5.65;1.00;;;;;;;7.92;89.55;100448.00;6274404;22;20019;-88
2022/02/08 12:09:07;;;;;;;4.03;1.70;;;;;;;7.93;89.63;100450.56;6274659;22;20092;-90
2022/02/08 12:12:00;;;;;;;3.97;1.38;;;;;;;8.03;88.96;100460.56;6275250;22;20016;-90
2022/02/08 12:30:43;;;;;;;6.35;1.00;;;;;;;8.21;88.42;100439.13;6273785;22;20517;-89
2022/02/08 12:33:22;;;;;;;9.13;2.22;;;;;;;8.33;87.40;100455.09;6272279;22;20030;-89
2022/02/08 13:04:46;;;;;;;5.63;0.90;;;;;;;7.86;91.26;100437.69;6149188;23;20026;-90
2022/02/08 14:12:43;;;;;;;3.65;1.05;;;;;;;7.74;96.48;100401.75;6175934;23;20025;-89
2022/02/08 14:21:08;;;;;;;13.48;2.00;;;;;;;7.79;97.77;100394.06;6305083;22;20016;-90
2022/02/08 14:23:56;;;;;;;5.72;2.03;;;;;;;7.77;98.50;100383.38;6305969;22;20019;-90
2022/02/08 14:29:40;;;;;;;10.98;2.10;;;;;;;7.87;96.10;100377.13;6306855;22;20092;-92
2022/02/08 14:32:37;;;;;;;2.05;1.35;;;;;;;7.79;96.80;100359.72;6306191;22;20018;-90
2022/02/08 15:09:56;;;;;;;3.67;1.48;;;;;;;7.65;99.78;100386.31;6306573;22;20026;-89
2022/02/08 15:12:27;;;;;;;4.50;1.02;;;;;;;7.63;99.84;100372.91;6305131;22;20045;-89
2022/02/08 15:15:04;;;;;;;5.22;1.40;;;;;;;7.58;99.54;100389.56;6305949;22;20065;-89
2022/02/08 15:17:32;;;;;;;8.00;1.30;;;;;;;7.55;99.71;100381.72;6305464;22;20393;-89
2022/02/08 15:20:02;;;;;;;5.90;1.90;;;;;;;7.68;100.00;100386.91;6305290;22;20086;-88
2022/02/08 15:22:30;;;;;;;2.85;0.90;;;;;;;7.65;100.00;100392.59;6305136;22;20482;-89
2022/02/08 15:24:59;;;;;;;13.07;2.15;;;;;;;7.50;99.57;100385.81;6304371;22;20019;-90
2022/02/08 15:27:29;;;;;;;8.77;2.50;;;;;;;7.36;100.00;100377.09;6304751;22;20050;-89
2022/02/08 15:29:56;;;;;;;;;;;;;;;7.54;100.00;100406.19;6306291;22;20025;-90
2022/02/08 15:32:26;;;;;;;3.17;0.98;;;;;;;7.37;100.00;100384.19;6304964;22;20310;-90
2022/02/08 15:34:54;;;;;;;5.40;1.60;;;;;;;7.50;100.00;100413.75;6308439;22;20076;-89
2022/02/08 15:37:21;;;;;;;5.70;1.45;;;;;;;7.32;100.00;100391.00;6309485;22;20090;-90
2022/02/08 15:39:51;;;;;;;5.85;1.48;;;;;;;7.31;100.00;100400.09;6309612;22;20098;-86
2022/02/08 15:42:20;;;;;;;;;;;;;;;7.42;100.00;100405.44;6307194;22;20019;-89
2022/02/08 15:44:49;;;;;;;7.15;1.58;;;;;;;7.33;100.00;100392.72;6305076;22;19922;-89
2022/02/08 15:47:17;;;;;;;4.22;1.20;;;;;;;7.30;99.53;100395.69;6304094;22;20022;-89
2022/02/08 15:49:55;;;;;;;8.45;1.65;;;;;;;7.22;100.00;100405.31;6305131;22;20023;-90
2022/02/08 15:52:31;;;;;;;9.25;1.48;;;;;;;7.17;100.00;100390.50;6305897;22;20023;-89
2022/02/08 15:55:02;;;;;;;7.47;1.70;;;;;;;7.17;100.00;100406.72;6303217;22;20038;-90
2022/02/08 15:58:04;;;;;;;3.58;1.13;;;;;;;7.13;100.00;100405.25;6304680;22;20035;-90
2022/02/08 16:00:49;;;;;;;4.97;1.25;;;;;;;6.99;100.00;100396.50;6273327;22;20024;-90
2022/02/08 16:08:46;;;;;;;5.88;1.38;;;;;;;7.03;100.00;100430.41;6207161;22;20016;-90
2022/02/08 16:11:37;;;;;;;8.95;1.95;;;;;;;6.94;100.00;100414.09;6273727;22;20011;-89
2022/02/08 16:14:12;;;;;;;9.20;1.77;;;;;;;6.96;100.00;100415.69;6273838;22;20026;-89
2022/02/08 16:16:52;;;;;;;6.40;2.30;;;;;;;6.90;100.00;100418.91;6273567;22;20258;-90
2022/02/08 16:19:28;;;;;;;;;;;;;;;6.98;100.00;100426.38;6273542;22;20387;-90
2022/02/08 16:22:28;;;;;;;9.10;1.80;;;;;;;6.88;100.00;100419.03;6274107;22;19994;-89
2022/02/08 16:25:19;;;;;;;7.13;1.40;;;;;;;6.91;100.00;100436.84;6273608;22;20016;-89
2022/02/08 16:28:01;;;;;;;7.88;2.55;;;;;;;6.79;100.00;100427.06;6274501;22;20091;-90
2022/02/08 16:50:36;;;;;;;4.85;1.80;;;;;;;6.59;100.00;100424.19;6272954;22;20471;-90
2022/02/08 16:53:22;;;;;;;3.83;1.55;;;;;;;6.71;100.00;100433.13;6273514;22;20024;-90
2022/02/08 16:56:01;;;;;;;5.63;1.60;;;;;;;6.76;100.00;100438.13;6272375;22;20026;-90
2022/02/08 16:58:38;;;;;;;5.15;1.40;;;;;;;6.62;100.00;100428.47;6272551;22;20456;-90
2022/02/08 17:03:51;;;;;;;3.00;1.80;;;;;;;6.64;100.00;100429.19;6272863;22;20022;-89
2022/02/08 17:06:21;;;;;;;9.82;2.00;;;;;;;6.53;100.00;100425.59;6274069;22;20046;-89
2022/02/08 17:08:53;;;;;;;4.95;2.20;;;;;;;6.51;100.00;100418.56;6272875;22;20073;-90
2022/02/08 17:11:36;;;;;;;13.27;2.22;;;;;;;6.56;100.00;100427.16;6272389;22;20027;-89
2022/02/08 17:45:23;;;;;;;9.70;2.80;;;;;;;6.40;100.00;100445.59;6272961;22;20034;-90
2022/02/08 17:47:49;;;;;;;7.97;2.35;;;;;;;6.31;100.00;100437.28;6273563;22;20082;-90
2022/02/08 17:50:24;;;;;;;11.85;2.08;;;;;;;6.27;100.00;100443.06;6272316;22;20061;-90
2022/02/08 17:53:03;;;;;;;8.23;1.70;;;;;;;6.38;100.00;100449.31;6274424;22;20020;-90
2022/02/08 17:55:30;;;;;;;10.65;2.25;;;;;;;6.28;100.00;100436.66;6271550;22;20064;-89
2022/02/08 17:57:57;;;;;;;11.57;2.70;;;;;;;6.23;100.00;100434.34;6273946;22;20015;-89
2022/02/08 18:00:32;;;;;;;9.60;2.58;;;;;;;6.33;100.00;100437.16;6273113;22;20115;-90
2022/02/08 18:03:04;;;;;;;11.85;2.85;;;;;;;6.35;100.00;100449.56;6273486;22;20035;-91
2022/02/08 18:05:45;;;;;;;8.45;2.95;;;;;;;6.26;100.00;100447.59;6273578;22;20023;-91
2022/02/08 18:08:13;;;;;;;15.93;3.80;;;;;;;6.16;100.00;100430.47;6274360;22;20015;-92
2022/02/08 18:10:44;;;;;;;10.55;3.60;;;;;;;6.12;100.00;100437.94;6272487;22;20015;-92
2022/02/08 18:13:16;;;;;;;11.35;4.25;;;;;;;6.20;100.00;100445.41;6272741;22;20452;-92
2022/02/08 18:15:48;;;;;;;14.48;3.85;;;;;;;6.28;100.00;100444.78;6273373;22;20459;-91
2022/02/08 18:18:25;;;;;;;10.00;3.08;;;;;;;6.20;100.00;100442.72;6273024;22;20086;-92
2022/02/08 18:20:57;;;;;;;12.40;3.85;;;;;;;6.27;100.00;100457.44;6273565;22;20019;-92
2022/02/08 18:58:06;;;;;;;12.30;4.15;;;;;;;6.18;100.00;100455.50;6275344;22;20042;-91
2022/02/08 19:03:58;;;;;;;11.35;3.42;;;;;;;6.09;100.00;100454.38;6276493;22;20470;-91
2022/02/08 19:09:43;;;;;;;14.93;4.05;;;;;;;6.14;100.00;100465.69;6182300;23;20092;-92
2022/02/08 19:12:55;;;;;;;10.70;3.33;;;;;;;6.25;100.00;100491.81;6182407;23;20104;-91
2022/02/08 19:15:39;;;;;;;10.50;3.08;;;;;;;6.10;100.00;100468.75;6259604;22;20046;-92
2022/02/08 19:18:33;;;;;;;7.50;2.55;;;;;;;6.11;100.00;100475.84;6274599;22;20074;-91
2022/02/08 19:21:32;;;;;;;11.90;3.30;;;;;;;6.05;100.00;100473.66;6275875;22;20443;-91
2022/02/08 19:24:03;;;;;;;9.88;2.92;;;;;;;6.05;100.00;100476.34;6275154;22;20097;-91
2022/02/08 19:26:30;;;;;;;10.05;2.60;;;;;;;6.14;100.00;100484.59;6274363;22;20019;-91
2022/02/08 19:29:14;;;;;;;12.35;2.95;;;;;;;6.13;100.00;100493.66;6274722;22;20015;-91
2022/02/08 19:31:41;;;;;;;16.58;2.50;;;;;;;6.05;100.00;100484.47;6275498;22;20340;-91
2022/02/08 19:34:10;;;;;;;7.78;2.97;;;;;;;6.06;100.00;100495.13;6275206;22;20095;-92
2022/02/08 19:36:41;;;;;;;8.38;2.58;;;;;;;6.02;100.00;100472.94;6275670;22;20026;-91
2022/02/08 19:39:23;;;;;;;11.27;2.92;;;;;;;5.97;100.00;100463.47;6275665;22;20019;-92
2022/02/08 19:41:58;;;;;;;6.38;2.25;;;;;;;6.06;100.00;100483.50;6275649;22;20022;-91
2022/02/08 19:45:20;;;;;;;7.20;2.22;;;;;;;6.02;100.00;100494.53;6275181;22;20098;-91
2022/02/08 19:47:51;;;;;;;9.98;2.63;;;;;;;5.97;100.00;100482.38;6275505;22;20103;-92
2022/02/08 19:50:18;;;;;;;8.45;2.75;;;;;;;6.07;100.00;100499.56;6275383;22;20020;-91
2022/02/08 19:52:47;;;;;;;9.52;2.50;;;;;;;5.96;100.00;100486.00;6275286;22;20095;-91
2022/02/08 19:58:10;;;;;;;10.63;3.10;;;;;;;6.03;100.00;100498.09;6273110;22;20024;-92
2022/02/08 20:00:43;;;;;;;6.93;2.92;;;;;;;5.99;100.00;100489.38;6276347;22;20091;-92
2022/02/08 20:03:13;;;;;;;11.13;2.33;;;;;;;5.90;100.00;100464.91;6275332;22;20024;-92
2022/02/08 20:05:42;;;;;;;10.75;2.63;;;;;;;5.94;100.00;100469.94;6274981;22;20036;-91
2022/02/08 20:08:09;;;;;;;7.85;2.28;;;;;;;5.86;100.00;100477.81;6274686;22;20094;-92
2022/02/08 20:10:37;;;;;;;5.85;2.20;;;;;;;5.98;100.00;100487.66;6275279;22;20026;-92
2022/02/08 20:13:10;;;;;;;7.35;2.20;;;;;;;5.84;100.00;100477.06;6274777;22;20020;-92
2022/02/08 20:15:37;;;;;;;5.07;2.17;;;;;;;5.93;100.00;100497.94;6275396;22;20102;-92
2022/02/08 20:18:05;;;;;;;13.45;4.18;;;;;;;5.85;100.00;100508.47;6275055;22;20444;-91
2022/02/08 20:20:39;;;;;;;14.18;4.13;;;;;;;5.76;100.00;100503.81;6274475;22;20023;-92
2022/02/08 20:23:06;;;;;;;15.70;5.47;;;;;;;5.70;100.00;100498.91;6275146;22;20019;-92
2022/02/08 20:25:51;;;;;;;15.73;4.72;;;;;;;5.70;100.00;100496.19;6273932;22;20098;-92
2022/02/08 20:28:25;;;;;;;13.75;3.42;;;;;;;5.74;100.00;100495.84;6273204;22;20078;-92
2022/02/08 20:31:06;;;;;;;12.77;3.25;;;;;;;5.78;100.00;100516.22;6275817;22;20069;-91
2022/02/08 20:33:37;;;;;;;11.55;3.08;;;;;;;5.62;100.00;100503.03;6274522;22;20022;-89
2022/02/08 20:36:09;;;;;;;9.10;3.70;;;;;;;5.74;100.00;100516.56;6274352;22;20028;-91
2022/02/08 20:38:40;;;;;;;7.82;3.05;;;;;;;5.66;100.00;100495.56;6275098;22;20062;-91
2022/02/08 20:41:09;;;;;;;12.32;4.75;;;;;;;5.67;100.00;100500.00;6276594;22;20022;-91
2022/02/08 20:43:51;;;;;;;12.52;3.65;;;;;;;5.79;100.00;100515.19;6274365;22;20194;-91
2022/02/08 20:46:19;;;;;;;10.95;4.57;;;;;;;5.80;100.00;100522.34;6274046;22;20108;-91
2022/02/08 20:48:48;;;;;;;20.00;7.13;;;;;;;5.59;100.00;100499.75;6277124;22;20024;-91
2022/02/08 20:51:26;;;;;;;12.13;4.72;;;;;;;5.56;100.00;100510.78;6273920;22;20073;-91
2022/02/08 20:54:01;;;;;;;16.00;5.15;;;;;;;5.50;100.00;100499.47;6273760;22;20019;-90
2022/02/08 20:56:50;;;;;;;15.20;5.20;;;;;;;5.56;100.00;100519.72;6273223;22;20020;-91
2022/02/08 20:59:24;;;;;;;15.90;4.75;;;;;;;5.45;100.00;100508.88;6273601;22;20020;-91
2022/02/08 21:01:52;;;;;;;8.77;3.85;;;;;;;5.57;100.00;100517.88;6274100;22;20016;-91
2022/02/08 21:04:41;;;;;;;15.77;4.80;;;;;;;5.57;100.00;100520.56;6275248;22;20015;-91
2022/02/08 21:07:09;;;;;;;17.63;4.20;;;;;;;5.54;100.00;100524.38;6281465;22;20015;-91
2022/02/08 21:09:39;;;;;;;9.93;3.67;;;;;;;5.42;100.00;100495.63;6281884;22;20022;-91
2022/02/08 21:12:26;;;;;;;8.82;3.22;;;;;;;5.52;100.00;100512.84;6282995;22;20375;-91
2022/02/08 21:15:05;;;;;;;8.70;4.25;;;;;;;5.58;100.00;100506.09;6274073;22;20022;-90
2022/02/08 21:17:56;;;;;;;9.10;3.67;;;;;;;5.53;100.00;100492.97;6274570;22;20016;-91
